createdAt,value
2019-02-17T00:00:43.654Z,96497.34
2019-02-17T00:01:47.184Z,96495.29
2019-02-17T00:02:50.696Z,96499.20
2019-02-17T00:03:54.272Z,96505.30
2019-02-17T00:04:57.716Z,96497.47
2019-02-17T00:06:01.222Z,96499.42
2019-02-17T00:07:04.815Z,96496.70
2019-02-17T00:08:08.285Z,96497.90
2019-02-17T00:09:11.782Z,96502.89
2019-02-17T00:10:15.283Z,96500.41
2019-02-17T00:11:18.718Z,96506.81
2019-02-17T00:12:22.172Z,96499.64
2019-02-17T00:13:25.634Z,96499.64
2019-02-17T00:14:29.063Z,96497.03
2019-02-17T00:15:32.492Z,96495.39
2019-02-17T00:16:35.943Z,96497.02
2019-02-17T00:17:39.371Z,96497.77
2019-02-17T00:18:42.820Z,96497.66
2019-02-17T00:19:46.262Z,96495.25
2019-02-17T00:20:49.771Z,96499.06
2019-02-17T00:21:53.200Z,96495.25
2019-02-17T00:22:56.629Z,96492.20
2019-02-17T00:24:00.153Z,96495.37
2019-02-17T00:25:04.091Z,96497.31
2019-02-17T00:26:07.523Z,96496.30
2019-02-17T00:27:11.053Z,96493.20
2019-02-17T00:28:14.584Z,96493.53
2019-02-17T00:29:18.022Z,96497.45
2019-02-17T00:30:21.459Z,96502.34
2019-02-17T00:31:24.893Z,96489.95
2019-02-17T00:32:28.329Z,96490.05
2019-02-17T00:33:31.768Z,96493.39
2019-02-17T00:34:35.230Z,96488.73
2019-02-17T00:35:38.686Z,96492.56
2019-02-17T00:36:42.107Z,96487.12
2019-02-17T00:37:45.545Z,96491.84
2019-02-17T00:38:48.977Z,96490.45
2019-02-17T00:39:52.428Z,96495.23
2019-02-17T00:40:55.858Z,96491.70
2019-02-17T00:41:59.366Z,96494.70
2019-02-17T00:43:03.030Z,96492.31
2019-02-17T00:44:06.474Z,96500.11
2019-02-17T00:45:10.183Z,96498.85
2019-02-17T00:46:13.616Z,96501.14
2019-02-17T00:47:17.068Z,96496.31
2019-02-17T00:48:20.520Z,96501.53
2019-02-17T00:49:24.000Z,96498.72
2019-02-17T00:50:27.457Z,96496.64
2019-02-17T00:51:30.898Z,96499.13
2019-02-17T00:52:34.343Z,96497.15
2019-02-17T00:53:37.862Z,96502.61
2019-02-17T00:54:41.309Z,96498.90
2019-02-17T00:55:44.775Z,96503.34
2019-02-17T00:56:48.225Z,96500.64
2019-02-17T00:57:51.676Z,96498.92
2019-02-17T00:58:55.091Z,96497.67
2019-02-17T00:59:58.519Z,96494.84
2019-02-17T01:01:01.990Z,96498.13
2019-02-17T01:02:05.493Z,96493.10
2019-02-17T01:03:08.927Z,96495.27
2019-02-17T01:04:12.438Z,96494.38
2019-02-17T01:05:15.953Z,96491.52
2019-02-17T01:06:19.431Z,96495.84
2019-02-17T01:07:23.007Z,96498.02
2019-02-17T01:08:26.445Z,96500.38
2019-02-17T01:09:30.280Z,96501.16
2019-02-17T01:10:33.820Z,96499.08
2019-02-17T01:11:37.375Z,96495.16
2019-02-17T01:12:40.848Z,96495.83
2019-02-17T01:13:44.351Z,96497.13
2019-02-17T01:14:47.787Z,96491.47
2019-02-17T01:15:51.308Z,96491.20
2019-02-17T01:16:54.763Z,96490.76
2019-02-17T01:17:58.291Z,96492.95
2019-02-17T01:19:01.724Z,96493.63
2019-02-17T01:20:07.625Z,96491.97
2019-02-17T01:21:11.057Z,96491.73
2019-02-17T01:22:14.517Z,96496.06
2019-02-17T01:23:17.971Z,96496.83
2019-02-17T01:24:21.567Z,96495.86
2019-02-17T01:25:25.083Z,96495.53
2019-02-17T01:26:28.578Z,96493.34
2019-02-17T01:27:32.029Z,96494.31
2019-02-17T01:28:35.467Z,96496.80
2019-02-17T01:29:38.904Z,96499.62
2019-02-17T01:30:42.335Z,96495.80
2019-02-17T01:31:45.780Z,96486.52
2019-02-17T01:32:49.294Z,96486.37
2019-02-17T01:33:52.757Z,96489.34
2019-02-17T01:34:56.209Z,96493.03
2019-02-17T01:35:59.642Z,96493.66
2019-02-17T01:37:03.170Z,96488.00
2019-02-17T01:38:06.637Z,96492.05
2019-02-17T01:39:10.094Z,96492.05
2019-02-17T01:40:13.597Z,96494.65
2019-02-17T01:41:17.140Z,96494.33
2019-02-17T01:42:20.843Z,96494.48
2019-02-17T01:43:24.311Z,96491.36
2019-02-17T01:44:27.862Z,96489.20
2019-02-17T01:45:31.456Z,96491.81
2019-02-17T01:46:34.896Z,96485.77
2019-02-17T01:47:38.411Z,96484.80
2019-02-17T01:48:41.863Z,96481.66
2019-02-17T01:49:45.322Z,96481.75
2019-02-17T01:50:48.769Z,96486.59
2019-02-17T01:51:52.286Z,96478.40
2019-02-17T01:52:55.736Z,96480.64
2019-02-17T01:53:59.200Z,96482.56
2019-02-17T01:55:02.641Z,96486.56
2019-02-17T01:56:06.239Z,96477.23
2019-02-17T01:57:09.739Z,96476.14
2019-02-17T01:58:13.350Z,96476.67
2019-02-17T01:59:16.892Z,96477.31
2019-02-17T02:00:20.451Z,96476.72
2019-02-17T02:01:23.954Z,96481.03
2019-02-17T02:02:27.456Z,96475.05
2019-02-17T02:03:30.895Z,96468.66
2019-02-17T02:04:34.363Z,96474.07
2019-02-17T02:05:37.937Z,96467.80
2019-02-17T02:06:41.503Z,96465.11
2019-02-17T02:07:44.952Z,96465.41
2019-02-17T02:08:48.382Z,96468.01
2019-02-17T02:09:51.830Z,96466.05
2019-02-17T02:10:55.415Z,96465.33
2019-02-17T02:11:58.934Z,96463.02
2019-02-17T02:13:02.442Z,96466.47
2019-02-17T02:14:06.536Z,96463.58
2019-02-17T02:15:11.259Z,96465.62
2019-02-17T02:16:14.739Z,96466.30
2019-02-17T02:17:18.267Z,96462.48
2019-02-17T02:18:21.769Z,96462.27
2019-02-17T02:19:25.206Z,96461.05
2019-02-17T02:20:29.345Z,96459.88
2019-02-17T02:21:32.780Z,96457.59
2019-02-17T02:22:36.212Z,96460.69
2019-02-17T02:23:39.643Z,96460.90
2019-02-17T02:24:43.075Z,96454.34
2019-02-17T02:25:46.537Z,96459.15
2019-02-17T02:26:49.978Z,96457.68
2019-02-17T02:27:53.418Z,96454.67
2019-02-17T02:28:56.846Z,96454.82
2019-02-17T02:30:00.340Z,96458.13
2019-02-17T02:31:03.838Z,96452.27
2019-02-17T02:32:07.303Z,96459.30
2019-02-17T02:33:10.801Z,96455.73
2019-02-17T02:34:14.242Z,96454.30
2019-02-17T02:35:17.690Z,96400.19
2019-02-17T02:36:21.126Z,96457.30
2019-02-17T02:37:24.644Z,96454.70
2019-02-17T02:38:28.140Z,96459.59
2019-02-17T02:39:31.711Z,96456.81
2019-02-17T02:40:35.144Z,96464.54
2019-02-17T02:41:38.606Z,96460.64
2019-02-17T02:42:42.050Z,96458.35
2019-02-17T02:43:45.480Z,96456.33
2019-02-17T02:44:48.914Z,96454.87
2019-02-17T02:45:52.419Z,96456.13
2019-02-17T02:46:55.867Z,96462.79
2019-02-17T02:47:59.317Z,96458.22
2019-02-17T02:49:02.758Z,96461.11
2019-02-17T02:50:09.339Z,96458.14
2019-02-17T02:51:12.827Z,96459.07
2019-02-17T02:52:16.294Z,96459.52
2019-02-17T02:53:19.731Z,96456.68
2019-02-17T02:54:23.161Z,96460.00
2019-02-17T02:55:26.616Z,96453.58
2019-02-17T02:56:30.043Z,96456.33
2019-02-17T02:57:33.500Z,96455.88
2019-02-17T02:58:36.934Z,96454.19
2019-02-17T02:59:41.927Z,96460.21
2019-02-17T03:00:45.610Z,96452.33
2019-02-17T03:01:49.045Z,96457.93
2019-02-17T03:02:52.521Z,96451.64
2019-02-17T03:03:55.986Z,96455.64
2019-02-17T03:04:59.468Z,96458.43
2019-02-17T03:06:07.560Z,96459.81
2019-02-17T03:07:11.077Z,96458.51
2019-02-17T03:08:14.538Z,96463.71
2019-02-17T03:09:18.131Z,96459.20
2019-02-17T03:10:21.638Z,96455.96
2019-02-17T03:11:25.069Z,96459.70
2019-02-17T03:12:28.577Z,96461.86
2019-02-17T03:13:32.106Z,96462.63
2019-02-17T03:14:35.546Z,96456.33
2019-02-17T03:15:39.052Z,96461.78
2019-02-17T03:16:42.497Z,96463.93
2019-02-17T03:17:45.965Z,96464.91
2019-02-17T03:18:49.394Z,96461.14
2019-02-17T03:19:52.832Z,96466.74
2019-02-17T03:20:56.277Z,96463.63
2019-02-17T03:21:59.710Z,96466.63
2019-02-17T03:23:03.156Z,96464.77
2019-02-17T03:24:06.594Z,96465.33
2019-02-17T03:25:10.154Z,96465.22
2019-02-17T03:26:13.592Z,96461.11
2019-02-17T03:27:17.014Z,96459.83
2019-02-17T03:28:20.479Z,96464.39
2019-02-17T03:29:23.934Z,96457.15
2019-02-17T03:30:27.379Z,96461.58
2019-02-17T03:31:30.809Z,96459.19
2019-02-17T03:32:34.245Z,96458.73
2019-02-17T03:33:37.722Z,96454.30
2019-02-17T03:34:41.156Z,96457.17
2019-02-17T03:35:44.674Z,96455.78
2019-02-17T03:36:48.167Z,96461.05
2019-02-17T03:37:51.634Z,96458.45
2019-02-17T03:38:55.067Z,96465.34
2019-02-17T03:39:58.526Z,96459.30
2019-02-17T03:41:01.967Z,96459.16
2019-02-17T03:42:05.635Z,96456.19
2019-02-17T03:43:09.145Z,96458.02
2019-02-17T03:44:12.608Z,96462.23
2019-02-17T03:45:16.035Z,96459.39
2019-02-17T03:46:19.469Z,96455.81
2019-02-17T03:47:22.929Z,96448.92
2019-02-17T03:48:26.440Z,96457.35
2019-02-17T03:49:29.961Z,96460.55
2019-02-17T03:50:33.551Z,96454.58
2019-02-17T03:51:37.055Z,96455.28
2019-02-17T03:52:40.481Z,96454.58
2019-02-17T03:53:43.933Z,96453.07
2019-02-17T03:54:47.373Z,96452.75
2019-02-17T03:55:50.806Z,96458.33
2019-02-17T03:56:54.309Z,96451.00
2019-02-17T03:57:57.755Z,96452.52
2019-02-17T03:59:01.177Z,96447.56
2019-02-17T04:00:16.597Z,96449.98
2019-02-17T04:01:11.420Z,96450.30
2019-02-17T04:02:14.918Z,96450.76
2019-02-17T04:03:18.430Z,96449.84
2019-02-17T04:04:21.931Z,96443.59
2019-02-17T04:05:25.371Z,96444.58
2019-02-17T04:06:28.965Z,96443.48
2019-02-17T04:07:32.464Z,96451.07
2019-02-17T04:08:35.969Z,96448.40
2019-02-17T04:09:39.394Z,96448.33
2019-02-17T04:10:42.983Z,96451.77
2019-02-17T04:11:46.482Z,96453.06
2019-02-17T04:12:49.948Z,96456.79
2019-02-17T04:13:53.382Z,96461.07
2019-02-17T04:14:56.987Z,96458.02
2019-02-17T04:16:00.509Z,96458.19
2019-02-17T04:17:04.030Z,96455.80
2019-02-17T04:18:07.601Z,96460.41
2019-02-17T04:19:11.101Z,96454.44
2019-02-17T04:20:14.632Z,96452.82
2019-02-17T04:21:18.072Z,96452.37
2019-02-17T04:22:21.504Z,96452.16
2019-02-17T04:23:31.280Z,96455.11
2019-02-17T04:24:30.221Z,96455.95
2019-02-17T04:25:33.658Z,96456.58
2019-02-17T04:26:37.110Z,96455.04
2019-02-17T04:27:40.563Z,96452.69
2019-02-17T04:28:44.006Z,96453.67
2019-02-17T04:29:47.520Z,96452.38
2019-02-17T04:30:50.966Z,96447.03
2019-02-17T04:31:54.417Z,96458.33
2019-02-17T04:32:57.866Z,96453.12
2019-02-17T04:34:01.276Z,96453.95
2019-02-17T04:35:05.259Z,96454.41
2019-02-17T04:36:08.687Z,96453.19
2019-02-17T04:37:12.216Z,96457.63
2019-02-17T04:38:15.722Z,96454.67
2019-02-17T04:39:19.157Z,96451.05
2019-02-17T04:40:22.591Z,96444.10
2019-02-17T04:41:26.019Z,96447.70
2019-02-17T04:42:29.471Z,96449.37
2019-02-17T04:43:32.970Z,96446.78
2019-02-17T04:44:36.411Z,96454.05
2019-02-17T04:45:39.921Z,96449.45
2019-02-17T04:46:43.348Z,96446.72
2019-02-17T04:47:46.800Z,96449.17
2019-02-17T04:48:50.237Z,96447.63
2019-02-17T04:49:53.661Z,96453.53
2019-02-17T04:50:57.154Z,96448.78
2019-02-17T04:52:00.575Z,96454.66
2019-02-17T04:53:04.026Z,96448.99
2019-02-17T04:54:07.456Z,96455.88
2019-02-17T04:55:10.897Z,96453.66
2019-02-17T04:56:14.326Z,96456.27
2019-02-17T04:57:17.755Z,96452.97
2019-02-17T04:58:21.195Z,96458.17
2019-02-17T04:59:24.644Z,96458.72
2019-02-17T05:00:39.218Z,96454.83
2019-02-17T05:01:33.202Z,96459.92
2019-02-17T05:02:36.636Z,96457.04
2019-02-17T05:03:40.089Z,96460.80
2019-02-17T05:04:43.519Z,96452.97
2019-02-17T05:05:47.017Z,96457.95
2019-02-17T05:06:50.452Z,96454.38
2019-02-17T05:07:53.892Z,96455.67
2019-02-17T05:08:57.418Z,96461.78
2019-02-17T05:10:00.873Z,96462.91
2019-02-17T05:11:04.302Z,96464.73
2019-02-17T05:12:07.735Z,96462.62
2019-02-17T05:13:11.165Z,96459.64
2019-02-17T05:14:14.620Z,96453.36
2019-02-17T05:15:18.072Z,96451.28
2019-02-17T05:16:21.498Z,96452.52
2019-02-17T05:17:24.997Z,96446.09
2019-02-17T05:18:28.425Z,96449.17
2019-02-17T05:19:31.892Z,96452.38
2019-02-17T05:20:35.320Z,96453.07
2019-02-17T05:21:38.762Z,96453.42
2019-02-17T05:22:42.206Z,96450.61
2019-02-17T05:23:45.631Z,96451.45
2019-02-17T05:24:49.081Z,96453.88
2019-02-17T05:25:52.587Z,96449.52
2019-02-17T05:26:56.008Z,96452.52
2019-02-17T05:27:59.451Z,96452.44
2019-02-17T05:29:02.922Z,96453.36
2019-02-17T05:30:09.082Z,96452.30
2019-02-17T05:31:12.507Z,96443.88
2019-02-17T05:32:15.931Z,96448.78
2019-02-17T05:33:19.357Z,96450.44
2019-02-17T05:34:22.783Z,96450.09
2019-02-17T05:35:26.310Z,96459.38
2019-02-17T05:36:29.735Z,96454.84
2019-02-17T05:37:33.171Z,96456.25
2019-02-17T05:38:36.607Z,96446.00
2019-02-17T05:39:40.049Z,96452.80
2019-02-17T05:40:43.513Z,96457.48
2019-02-17T05:41:46.914Z,96458.20
2019-02-17T05:42:50.343Z,96462.81
2019-02-17T05:43:53.760Z,96456.99
2019-02-17T05:44:57.221Z,96459.06
2019-02-17T05:46:00.719Z,96455.61
2019-02-17T05:47:04.138Z,96459.30
2019-02-17T05:48:07.560Z,96457.83
2019-02-17T05:49:10.991Z,96462.05
2019-02-17T05:50:14.430Z,96461.67
2019-02-17T05:51:17.858Z,96459.98
2019-02-17T05:52:21.293Z,96467.25
2019-02-17T05:53:24.730Z,96461.38
2019-02-17T05:54:28.157Z,96467.32
2019-02-17T05:55:31.592Z,96460.37
2019-02-17T05:56:35.084Z,96465.49
2019-02-17T05:57:38.516Z,96467.32
2019-02-17T05:58:41.933Z,96470.63
2019-02-17T05:59:45.379Z,96466.97
2019-02-17T06:00:48.903Z,96470.48
2019-02-17T06:01:52.328Z,96467.19
2019-02-17T06:02:55.772Z,96465.05
2019-02-17T06:03:59.265Z,96470.70
2019-02-17T06:05:02.766Z,96467.19
2019-02-17T06:06:06.272Z,96464.51
2019-02-17T06:07:09.716Z,96463.87
2019-02-17T06:08:13.143Z,96464.82
2019-02-17T06:09:16.562Z,96462.97
2019-02-17T06:10:20.003Z,96462.95
2019-02-17T06:11:23.455Z,96462.81
2019-02-17T06:12:26.894Z,96464.42
2019-02-17T06:13:30.316Z,96464.09
2019-02-17T06:14:33.819Z,96460.97
2019-02-17T06:15:37.257Z,96463.83
2019-02-17T06:16:40.698Z,96469.25
2019-02-17T06:17:44.122Z,96467.39
2019-02-17T06:18:47.548Z,96467.33
2019-02-17T06:19:51.113Z,96473.30
2019-02-17T06:20:54.577Z,96471.93
2019-02-17T06:21:57.988Z,96477.27
2019-02-17T06:23:01.416Z,96478.51
2019-02-17T06:24:04.911Z,96475.52
2019-02-17T06:25:08.472Z,96474.09
2019-02-17T06:26:11.931Z,96477.30
2019-02-17T06:27:15.355Z,96480.05
2019-02-17T06:28:18.763Z,96478.57
2019-02-17T06:29:22.190Z,96477.58
2019-02-17T06:30:25.614Z,96479.66
2019-02-17T06:31:29.059Z,96478.66
2019-02-17T06:32:32.488Z,96480.45
2019-02-17T06:33:35.991Z,96483.50
2019-02-17T06:34:39.409Z,96489.53
2019-02-17T06:35:42.839Z,96488.70
2019-02-17T06:36:46.281Z,96487.23
2019-02-17T06:37:49.699Z,96485.56
2019-02-17T06:38:53.185Z,96492.38
2019-02-17T06:39:56.607Z,96492.63
2019-02-17T06:41:00.108Z,96490.47
2019-02-17T06:42:03.552Z,96488.78
2019-02-17T06:43:06.977Z,96486.33
2019-02-17T06:44:10.421Z,96428.23
2019-02-17T06:45:13.913Z,96489.84
2019-02-17T06:46:18.984Z,96487.56
2019-02-17T06:47:24.078Z,96487.81
2019-02-17T06:48:27.549Z,96486.05
2019-02-17T06:49:30.973Z,96493.28
2019-02-17T06:50:34.402Z,96493.08
2019-02-17T06:51:37.848Z,96496.45
2019-02-17T06:52:41.267Z,96495.55
2019-02-17T06:53:44.687Z,96495.84
2019-02-17T06:54:49.743Z,96496.54
2019-02-17T06:55:57.809Z,96496.16
2019-02-17T06:57:02.885Z,96498.62
2019-02-17T06:58:06.322Z,96494.48
2019-02-17T06:59:09.746Z,96495.56
2019-02-17T07:00:14.949Z,96497.77
2019-02-17T07:01:24.567Z,96494.02
2019-02-17T07:02:23.899Z,96493.49
2019-02-17T07:03:27.336Z,96497.47
2019-02-17T07:04:43.917Z,96499.45
2019-02-17T07:05:48.987Z,96493.88
2019-02-17T07:06:54.062Z,96488.61
2019-02-17T07:07:57.501Z,96493.81
2019-02-17T07:09:00.911Z,96489.91
2019-02-17T07:10:05.206Z,96491.59
2019-02-17T07:11:08.619Z,96491.28
2019-02-17T07:12:12.088Z,96488.67
2019-02-17T07:13:15.518Z,96497.00
2019-02-17T07:14:18.931Z,96496.47
2019-02-17T07:15:22.432Z,96494.49
2019-02-17T07:16:25.853Z,96495.62
2019-02-17T07:17:29.326Z,96497.55
2019-02-17T07:18:32.792Z,96487.36
2019-02-17T07:19:36.203Z,96489.95
2019-02-17T07:20:39.649Z,96494.47
2019-02-17T07:21:43.060Z,96488.42
2019-02-17T07:22:46.504Z,96490.33
2019-02-17T07:23:49.928Z,96487.50
2019-02-17T07:24:53.358Z,96491.00
2019-02-17T07:25:56.798Z,96487.23
2019-02-17T07:27:00.224Z,96494.52
2019-02-17T07:28:03.678Z,96491.83
2019-02-17T07:29:07.193Z,96497.80
2019-02-17T07:30:10.757Z,96490.30
2019-02-17T07:31:14.334Z,96494.63
2019-02-17T07:32:17.756Z,96486.55
2019-02-17T07:33:21.201Z,96484.40
2019-02-17T07:34:24.644Z,96492.90
2019-02-17T07:35:28.135Z,96490.13
2019-02-17T07:36:31.636Z,96491.24
2019-02-17T07:37:35.042Z,96491.53
2019-02-17T07:38:38.487Z,96489.45
2019-02-17T07:39:41.936Z,96489.05
2019-02-17T07:40:45.379Z,96492.22
2019-02-17T07:41:48.819Z,96493.11
2019-02-17T07:42:52.262Z,96492.55
2019-02-17T07:43:55.690Z,96493.20
2019-02-17T07:44:59.140Z,96493.08
2019-02-17T07:46:02.688Z,96496.58
2019-02-17T07:47:06.136Z,96489.13
2019-02-17T07:48:09.564Z,96493.16
2019-02-17T07:49:12.994Z,96493.31
2019-02-17T07:50:16.520Z,96486.59
2019-02-17T07:51:19.949Z,96495.22
2019-02-17T07:52:23.377Z,96493.98
2019-02-17T07:53:26.782Z,96486.64
2019-02-17T07:54:30.246Z,96491.80
2019-02-17T07:55:33.672Z,96493.78
2019-02-17T07:56:37.237Z,96490.34
2019-02-17T07:57:40.689Z,96493.63
2019-02-17T07:58:44.090Z,96488.33
2019-02-17T07:59:47.535Z,96488.00
2019-02-17T08:00:50.954Z,96487.05
2019-02-17T08:01:54.384Z,96485.00
2019-02-17T08:02:57.806Z,96486.56
2019-02-17T08:04:01.233Z,96486.58
2019-02-17T08:05:05.618Z,96483.34
2019-02-17T08:06:09.041Z,96479.87
2019-02-17T08:07:12.466Z,96483.90
2019-02-17T08:08:16.028Z,96485.45
2019-02-17T08:09:19.454Z,96480.05
2019-02-17T08:10:22.892Z,96478.84
2019-02-17T08:11:26.311Z,96475.28
2019-02-17T08:12:29.805Z,96483.92
2019-02-17T08:13:33.304Z,96481.21
2019-02-17T08:14:36.739Z,96480.69
2019-02-17T08:15:40.176Z,96475.23
2019-02-17T08:16:43.615Z,96476.98
2019-02-17T08:17:47.035Z,96477.02
2019-02-17T08:18:50.534Z,96479.20
2019-02-17T08:19:53.962Z,96476.39
2019-02-17T08:20:57.400Z,96479.87
2019-02-17T08:22:00.821Z,96472.48
2019-02-17T08:23:04.354Z,96472.81
2019-02-17T08:24:07.789Z,96476.62
2019-02-17T08:25:20.993Z,96475.76
2019-02-17T08:26:16.495Z,96473.34
2019-02-17T08:27:19.985Z,96469.86
2019-02-17T08:28:23.406Z,96471.41
2019-02-17T08:29:26.825Z,96465.20
2019-02-17T08:30:30.248Z,96462.92
2019-02-17T08:31:33.703Z,96399.34
2019-02-17T08:32:37.191Z,96462.92
2019-02-17T08:33:40.703Z,96459.44
2019-02-17T08:34:44.130Z,96459.77
2019-02-17T08:35:47.639Z,96457.70
2019-02-17T08:36:51.083Z,96455.19
2019-02-17T08:37:54.516Z,96460.95
2019-02-17T08:38:57.959Z,96456.18
2019-02-17T08:40:01.383Z,96450.08
2019-02-17T08:41:04.822Z,96450.06
2019-02-17T08:42:08.245Z,96456.69
2019-02-17T08:43:11.668Z,96449.28
2019-02-17T08:44:15.104Z,96448.41
2019-02-17T08:45:18.537Z,96448.95
2019-02-17T08:46:21.995Z,96448.94
2019-02-17T08:47:25.391Z,96444.14
2019-02-17T08:48:28.832Z,96446.53
2019-02-17T08:49:32.239Z,96451.97
2019-02-17T08:50:35.663Z,96453.03
2019-02-17T08:51:39.105Z,96451.27
2019-02-17T08:52:42.527Z,96448.54
2019-02-17T08:53:46.023Z,96449.63
2019-02-17T08:54:49.430Z,96446.78
2019-02-17T08:55:52.861Z,96454.69
2019-02-17T08:56:56.301Z,96443.65
2019-02-17T08:57:59.736Z,96451.39
2019-02-17T08:59:03.225Z,96444.19
2019-02-17T09:00:12.469Z,96448.73
2019-02-17T09:01:15.931Z,96451.78
2019-02-17T09:02:19.342Z,96452.43
2019-02-17T09:03:22.761Z,96443.70
2019-02-17T09:04:26.188Z,96446.63
2019-02-17T09:05:29.678Z,96452.51
2019-02-17T09:06:33.104Z,96444.96
2019-02-17T09:07:36.552Z,96441.54
2019-02-17T09:08:39.958Z,96448.19
2019-02-17T09:09:43.387Z,96446.00
2019-02-17T09:10:46.815Z,96447.73
2019-02-17T09:11:50.243Z,96444.64
2019-02-17T09:12:53.712Z,96441.56
2019-02-17T09:13:57.132Z,96438.48
2019-02-17T09:15:00.634Z,96443.25
2019-02-17T09:16:04.191Z,96437.77
2019-02-17T09:17:07.685Z,96443.08
2019-02-17T09:18:11.194Z,96435.87
2019-02-17T09:19:14.704Z,96437.16
2019-02-17T09:20:18.097Z,96437.68
2019-02-17T09:21:21.527Z,96444.95
2019-02-17T09:22:25.041Z,96442.40
2019-02-17T09:23:28.490Z,96444.49
2019-02-17T09:24:31.984Z,96449.23
2019-02-17T09:25:35.414Z,96443.74
2019-02-17T09:26:38.921Z,96446.43
2019-02-17T09:27:42.367Z,96441.06
2019-02-17T09:28:45.803Z,96436.42
2019-02-17T09:29:49.222Z,96440.39
2019-02-17T09:30:52.719Z,96444.90
2019-02-17T09:31:56.139Z,96433.52
2019-02-17T09:32:59.607Z,96440.20
2019-02-17T09:34:03.035Z,96428.33
2019-02-17T09:35:06.686Z,96433.92
2019-02-17T09:36:10.107Z,96433.25
2019-02-17T09:37:13.592Z,96428.29
2019-02-17T09:38:17.261Z,96429.44
2019-02-17T09:39:20.816Z,96429.44
2019-02-17T09:40:24.495Z,96436.02
2019-02-17T09:41:28.026Z,96428.56
2019-02-17T09:42:31.569Z,96427.88
2019-02-17T09:43:34.992Z,96426.28
2019-02-17T09:44:38.413Z,96425.19
2019-02-17T09:45:41.907Z,96423.66
2019-02-17T09:46:45.438Z,96430.72
2019-02-17T09:47:48.854Z,96425.72
2019-02-17T09:48:52.370Z,96429.66
2019-02-17T09:49:55.791Z,96429.66
2019-02-17T09:50:59.210Z,96428.77
2019-02-17T09:52:02.702Z,96422.28
2019-02-17T09:53:06.216Z,96425.78
2019-02-17T09:54:09.672Z,96425.78
2019-02-17T09:55:13.248Z,96422.11
2019-02-17T09:56:16.684Z,96430.81
2019-02-17T09:57:20.103Z,96432.67
2019-02-17T09:58:23.545Z,96430.17
2019-02-17T09:59:27.076Z,96432.25
2019-02-17T10:00:30.607Z,96432.25
2019-02-17T10:01:34.040Z,96430.70
2019-02-17T10:02:37.468Z,96430.28
2019-02-17T10:03:40.907Z,96425.23
2019-02-17T10:04:44.421Z,96429.86
2019-02-17T10:05:48.003Z,96429.86
2019-02-17T10:06:51.460Z,96432.79
2019-02-17T10:07:54.907Z,96424.30
2019-02-17T10:08:58.393Z,96417.58
2019-02-17T10:10:01.838Z,96418.72
2019-02-17T10:11:05.359Z,96420.19
2019-02-17T10:12:08.803Z,96420.70
2019-02-17T10:13:12.306Z,96424.57
2019-02-17T10:14:15.782Z,96420.48
2019-02-17T10:15:19.237Z,96422.66
2019-02-17T10:16:22.665Z,96421.23
2019-02-17T10:17:26.182Z,96415.75
2019-02-17T10:18:29.597Z,96421.27
2019-02-17T10:19:33.024Z,96422.28
2019-02-17T10:20:36.469Z,96418.80
2019-02-17T10:21:39.901Z,96422.41
2019-02-17T10:22:43.398Z,96422.47
2019-02-17T10:23:46.828Z,96418.77
2019-02-17T10:24:50.332Z,96422.93
2019-02-17T10:25:53.775Z,96425.26
2019-02-17T10:26:57.222Z,96424.58
2019-02-17T10:28:00.705Z,96419.13
2019-02-17T10:29:04.209Z,96416.31
2019-02-17T10:30:12.839Z,96418.80
2019-02-17T10:31:16.356Z,96420.33
2019-02-17T10:32:19.798Z,96418.84
2019-02-17T10:33:23.233Z,96415.14
2019-02-17T10:34:26.674Z,96420.44
2019-02-17T10:35:30.114Z,96416.88
2019-02-17T10:36:33.566Z,96418.09
2019-02-17T10:37:37.018Z,96414.20
2019-02-17T10:38:40.465Z,96416.46
2019-02-17T10:39:44.131Z,96412.53
2019-02-17T10:40:47.637Z,96414.09
2019-02-17T10:41:51.171Z,96411.53
2019-02-17T10:42:54.608Z,96410.05
2019-02-17T10:43:58.040Z,96409.68
2019-02-17T10:45:01.464Z,96417.82
2019-02-17T10:46:06.118Z,96408.65
2019-02-17T10:47:09.768Z,96409.38
2019-02-17T10:48:13.283Z,96399.30
2019-02-17T10:49:16.722Z,96396.13
2019-02-17T10:50:20.146Z,96396.34
2019-02-17T10:51:23.574Z,96395.03
2019-02-17T10:52:27.036Z,96401.69
2019-02-17T10:53:30.472Z,96385.77
2019-02-17T10:54:33.972Z,96395.61
2019-02-17T10:55:37.406Z,96392.21
2019-02-17T10:56:40.910Z,96379.26
2019-02-17T10:57:44.355Z,96378.14
2019-02-17T10:58:47.993Z,96377.06
2019-02-17T10:59:51.368Z,96375.41
2019-02-17T11:00:54.844Z,96370.69
2019-02-17T11:01:58.277Z,96370.78
2019-02-17T11:03:05.054Z,96359.64
2019-02-17T11:04:09.357Z,96367.38
2019-02-17T11:05:12.922Z,96355.72
2019-02-17T11:06:16.363Z,96351.63
2019-02-17T11:07:19.783Z,96362.27
2019-02-17T11:08:23.298Z,96354.76
2019-02-17T11:09:26.817Z,96355.55
2019-02-17T11:10:30.369Z,96352.00
2019-02-17T11:11:33.897Z,96347.10
2019-02-17T11:12:37.334Z,96358.84
2019-02-17T11:13:40.860Z,96340.94
2019-02-17T11:14:44.300Z,96347.02
2019-02-17T11:15:47.750Z,96344.76
2019-02-17T11:16:51.250Z,96346.44
2019-02-17T11:17:54.751Z,96350.41
2019-02-17T11:18:58.201Z,96346.62
2019-02-17T11:20:01.652Z,96343.98
2019-02-17T11:21:05.096Z,96341.91
2019-02-17T11:22:08.527Z,96339.08
2019-02-17T11:23:11.991Z,96342.30
2019-02-17T11:24:15.568Z,96338.69
2019-02-17T11:25:19.079Z,96331.12
2019-02-17T11:26:22.505Z,96327.77
2019-02-17T11:27:25.950Z,96329.06
2019-02-17T11:28:29.511Z,96327.17
2019-02-17T11:29:32.957Z,96317.73
2019-02-17T11:30:36.473Z,96322.25
2019-02-17T11:31:39.973Z,96315.47
2019-02-17T11:32:43.476Z,96321.52
2019-02-17T11:33:46.944Z,96319.25
2019-02-17T11:34:50.548Z,96316.79
2019-02-17T11:35:54.053Z,96315.23
2019-02-17T11:36:57.493Z,96317.48
2019-02-17T11:38:00.915Z,96312.15
2019-02-17T11:39:07.924Z,96313.66
2019-02-17T11:40:12.644Z,96322.86
2019-02-17T11:41:16.045Z,96316.36
2019-02-17T11:42:19.476Z,96318.39
2019-02-17T11:43:22.903Z,96323.66
2019-02-17T11:44:26.325Z,96321.88
2019-02-17T11:45:30.109Z,96318.66
2019-02-17T11:46:33.610Z,96321.45
2019-02-17T11:47:37.049Z,96317.92
2019-02-17T11:48:40.497Z,96310.48
2019-02-17T11:49:43.960Z,96308.03
2019-02-17T11:50:47.512Z,96304.17
2019-02-17T11:51:50.955Z,96306.25
2019-02-17T11:52:54.377Z,96306.09
2019-02-17T11:53:57.811Z,96304.94
2019-02-17T11:55:01.246Z,96305.19
2019-02-17T11:56:04.852Z,96304.64
2019-02-17T11:57:08.304Z,96299.88
2019-02-17T11:58:11.737Z,96299.09
2019-02-17T11:59:15.165Z,96296.33
2019-02-17T12:00:20.765Z,96302.83
2019-02-17T12:01:24.351Z,96297.78
2019-02-17T12:02:27.782Z,96298.41
2019-02-17T12:03:31.386Z,96295.39
2019-02-17T12:04:34.822Z,96296.02
2019-02-17T12:05:38.251Z,96294.05
2019-02-17T12:06:41.702Z,96289.92
2019-02-17T12:07:45.275Z,96288.66
2019-02-17T12:08:49.135Z,96284.52
2019-02-17T12:09:52.575Z,96289.22
2019-02-17T12:10:56.003Z,96287.31
2019-02-17T12:11:59.453Z,96286.16
2019-02-17T12:13:02.918Z,96281.06
2019-02-17T12:14:06.350Z,96283.20
2019-02-17T12:15:12.115Z,96284.53
2019-02-17T12:16:15.541Z,96283.61
2019-02-17T12:17:18.998Z,96278.92
2019-02-17T12:18:22.431Z,96277.58
2019-02-17T12:19:25.856Z,96273.52
2019-02-17T12:20:33.593Z,96281.02
2019-02-17T12:21:38.663Z,96281.83
2019-02-17T12:22:42.135Z,96281.39
2019-02-17T12:23:47.206Z,96275.23
2019-02-17T12:24:51.819Z,96279.02
2019-02-17T12:25:56.924Z,96273.69
2019-02-17T12:27:14.009Z,96276.78